Time;durP1;ratioP1;P1;durP2;ratioP2;P2;SDS_P1;SDS_P2;PMS_P1;PMS_P2;Temp;Humidity;BMP_temperature;BMP_pressure;BME280_temperature;BME280_humidity;BME280_pressure;Samples;Min_cycle;Max_cycle;Signal;HPM_P1;HPM_P2
2021/12/20 00:00:53;;;;;;;29.92;4.55;;;7.30;99.90;;;;;;5019687;28;20073;-71
2021/12/20 00:03:19;;;;;;;23.95;4.40;;;7.30;99.90;;;;;;5010498;28;20135;-71
2021/12/20 00:05:44;;;;;;;25.48;4.72;;;7.30;99.90;;;;;;5012294;28;20080;-71
2021/12/20 00:08:10;;;;;;;24.35;4.55;;;7.30;99.90;;;;;;5012053;28;20513;-71
2021/12/20 00:10:36;;;;;;;32.08;4.50;;;7.30;99.90;;;;;;5012226;28;20030;-71
2021/12/20 00:13:02;;;;;;;31.48;5.38;;;7.20;99.90;;;;;;5010621;28;20042;-71
2021/12/20 00:15:27;;;;;;;35.17;5.82;;;7.20;99.90;;;;;;5011782;28;20427;-71
2021/12/20 00:17:53;;;;;;;29.05;4.45;;;7.20;99.90;;;;;;5011096;28;20044;-71
2021/12/20 00:20:20;;;;;;;22.92;5.30;;;7.20;99.90;;;;;;5012289;28;20048;-71
2021/12/20 00:22:45;;;;;;;31.70;5.07;;;7.20;99.90;;;;;;5010755;28;20073;-71
2021/12/20 00:25:11;;;;;;;25.23;4.70;;;7.20;99.90;;;;;;5012187;28;20507;-71
2021/12/20 00:27:37;;;;;;;24.23;4.28;;;7.20;99.90;;;;;;5026575;28;20046;-71
2021/12/20 00:30:07;;;;;;;27.92;5.72;;;7.20;99.90;;;;;;5011286;28;20045;-71
2021/12/20 00:32:32;;;;;;;20.92;6.13;;;7.20;99.90;;;;;;5010664;28;20046;-71
2021/12/20 00:34:58;;;;;;;25.30;4.43;;;7.20;99.90;;;;;;5025537;28;20105;-71
2021/12/20 00:40:21;;;;;;;26.70;5.38;;;7.20;99.90;;;;;;5026190;28;20088;-72
2021/12/20 00:42:48;;;;;;;20.77;4.10;;;7.20;99.90;;;;;;5009190;28;20050;-71
2021/12/20 00:45:14;;;;;;;22.38;4.63;;;7.20;99.90;;;;;;5010899;28;20084;-71
2021/12/20 00:47:41;;;;;;;22.75;3.70;;;7.20;99.90;;;;;;5025819;28;20438;-71
2021/12/20 00:50:09;;;;;;;25.33;4.68;;;7.10;99.90;;;;;;5010698;28;20458;-71
2021/12/20 00:52:35;;;;;;;30.15;4.22;;;7.20;99.90;;;;;;5009157;28;20053;-71
2021/12/20 00:55:00;;;;;;;25.73;4.45;;;7.10;99.90;;;;;;5010516;28;20363;-71
2021/12/20 00:57:26;;;;;;;25.05;4.07;;;7.10;99.90;;;;;;5010491;28;20454;-72
2021/12/20 00:59:51;;;;;;;29.38;4.55;;;7.10;99.90;;;;;;5012614;28;20072;-71
2021/12/20 01:02:18;;;;;;;28.30;3.72;;;7.10;99.90;;;;;;5028191;28;20076;-71
2021/12/20 01:04:43;;;;;;;43.95;5.53;;;7.10;99.90;;;;;;5011074;28;20061;-71
2021/12/20 01:07:10;;;;;;;19.17;4.78;;;7.10;99.90;;;;;;5010890;28;20042;-71
2021/12/20 01:09:36;;;;;;;20.33;4.03;;;7.10;99.90;;;;;;5010604;28;20446;-71
2021/12/20 01:12:05;;;;;;;28.85;5.03;;;7.10;99.90;;;;;;5010337;28;20045;-71
2021/12/20 01:14:34;;;;;;;30.75;4.63;;;7.00;99.90;;;;;;5010167;28;20141;-71
2021/12/20 01:17:05;;;;;;;22.95;4.57;;;7.00;99.90;;;;;;5010607;28;20044;-71
2021/12/20 01:19:32;;;;;;;33.22;4.80;;;7.00;99.90;;;;;;5010512;28;20042;-71
2021/12/20 01:21:57;;;;;;;30.13;4.50;;;7.00;99.90;;;;;;5010109;28;20049;-72
2021/12/20 01:24:23;;;;;;;19.33;4.70;;;7.00;99.90;;;;;;5010316;28;20427;-71
2021/12/20 01:26:48;;;;;;;35.35;4.70;;;7.00;99.90;;;;;;4974979;28;1018369;-71
2021/12/20 01:29:14;;;;;;;28.20;4.82;;;7.00;99.90;;;;;;5011188;28;20050;-72
2021/12/20 01:31:40;;;;;;;33.05;4.55;;;7.00;99.90;;;;;;5011100;28;20041;-71
2021/12/20 01:34:05;;;;;;;25.13;3.95;;;7.10;99.90;;;;;;5026070;28;20049;-72
2021/12/20 01:36:31;;;;;;;25.25;4.90;;;7.00;99.90;;;;;;5010843;28;20088;-71
2021/12/20 01:38:57;;;;;;;31.38;5.15;;;7.00;99.90;;;;;;5010963;28;20044;-72
2021/12/20 01:41:23;;;;;;;30.50;5.30;;;7.00;99.90;;;;;;5014829;28;20092;-71
2021/12/20 01:43:48;;;;;;;29.15;4.93;;;7.00;99.90;;;;;;5014630;28;20069;-71
2021/12/20 01:46:16;;;;;;;33.10;4.38;;;7.00;99.90;;;;;;5015111;28;20076;-72
2021/12/20 01:48:43;;;;;;;24.63;4.35;;;7.00;99.90;;;;;;5015543;28;20037;-72
2021/12/20 01:53:54;;;;;;;30.08;4.18;;;6.90;99.90;;;;;;5016535;28;20046;-72
2021/12/20 01:56:20;;;;;;;20.25;4.38;;;6.90;99.90;;;;;;5016468;28;20034;-72
2021/12/20 01:58:45;;;;;;;24.05;4.28;;;6.80;99.90;;;;;;5016041;28;20034;-73
2021/12/20 02:03:43;;;;;;;35.88;5.65;;;6.80;99.90;;;;;;5029485;28;20422;-71
2021/12/20 02:06:19;;;;;;;;;;;6.80;99.90;;;;;;5015091;28;20065;-71
2021/12/20 02:08:44;;;;;;;32.88;4.78;;;6.80;99.90;;;;;;5029614;28;19925;-71
2021/12/20 02:11:10;;;;;;;19.75;3.95;;;6.70;99.90;;;;;;5013406;28;20561;-71
2021/12/20 02:13:38;;;;;;;28.23;4.13;;;6.70;99.90;;;;;;5014317;28;20036;-71
2021/12/20 02:16:05;;;;;;;31.20;4.53;;;6.70;99.90;;;;;;5012588;28;20411;-71
2021/12/20 02:18:32;;;;;;;31.58;5.38;;;6.70;99.90;;;;;;5029194;28;20046;-71
2021/12/20 02:20:58;;;;;;;17.05;4.22;;;6.60;99.90;;;;;;5016082;28;20033;-71
2021/12/20 02:23:24;;;;;;;29.42;4.82;;;6.60;99.90;;;;;;5017589;28;20033;-71
2021/12/20 02:25:50;;;;;;;25.75;4.38;;;6.60;99.90;;;;;;5015874;28;20045;-72
2021/12/20 02:28:17;;;;;;;28.05;3.97;;;6.60;99.90;;;;;;5014035;28;20038;-71
2021/12/20 02:38:49;;;;;;;21.58;4.05;;;6.40;99.90;;;;;;5029198;28;20050;-72
2021/12/20 02:41:18;;;;;;;20.05;3.88;;;6.50;99.90;;;;;;5013851;28;20084;-72
2021/12/20 02:43:53;;;;;;;23.77;3.95;;;6.50;99.90;;;;;;5013532;28;20048;-71
2021/12/20 02:48:57;;;;;;;28.98;5.65;;;6.50;99.90;;;;;;5013793;28;20443;-72
2021/12/20 02:51:24;;;;;;;32.00;5.03;;;6.40;99.90;;;;;;5013411;28;20414;-72
2021/12/20 02:53:50;;;;;;;20.10;3.70;;;6.40;99.90;;;;;;5028547;28;20147;-72
2021/12/20 02:56:16;;;;;;;27.42;4.85;;;6.40;99.90;;;;;;5013908;28;20103;-72
2021/12/20 02:58:42;;;;;;;25.90;4.47;;;6.30;99.90;;;;;;5028702;28;20117;-72
2021/12/20 03:01:08;;;;;;;30.65;5.13;;;6.40;99.90;;;;;;5012238;28;20516;-71
2021/12/20 03:03:33;;;;;;;24.83;4.10;;;6.30;99.90;;;;;;5028684;28;20386;-71
2021/12/20 03:05:59;;;;;;;24.83;3.88;;;6.30;99.90;;;;;;5013408;28;20098;-71
2021/12/20 03:08:24;;;;;;;27.92;4.50;;;6.30;99.90;;;;;;5028595;28;20077;-71
2021/12/20 03:10:50;;;;;;;28.52;4.53;;;6.20;99.90;;;;;;5028576;28;20034;-72
2021/12/20 03:13:16;;;;;;;29.20;4.22;;;6.30;99.90;;;;;;5011799;28;20104;-71
2021/12/20 03:15:42;;;;;;;35.33;4.90;;;6.30;99.90;;;;;;5028318;28;20053;-71
2021/12/20 03:18:07;;;;;;;31.00;5.55;;;6.20;99.90;;;;;;5013211;28;20076;-71
2021/12/20 03:20:33;;;;;;;18.20;3.42;;;6.10;99.90;;;;;;5011676;28;20073;-71
2021/12/20 03:22:59;;;;;;;27.35;3.63;;;6.10;99.90;;;;;;5012651;28;20041;-71
2021/12/20 03:25:24;;;;;;;32.20;4.28;;;6.10;99.90;;;;;;5013140;28;20138;-71
2021/12/20 03:27:50;;;;;;;24.75;3.78;;;6.10;99.90;;;;;;5011551;28;20038;-71
2021/12/20 03:30:16;;;;;;;25.17;3.65;;;6.00;99.90;;;;;;5012777;28;20045;-71
2021/12/20 03:32:42;;;;;;;16.48;4.07;;;6.00;99.90;;;;;;5027913;28;20038;-71
2021/12/20 03:35:09;;;;;;;18.65;3.70;;;5.90;99.90;;;;;;5011635;28;20092;-71
2021/12/20 03:37:34;;;;;;;21.92;3.78;;;5.90;99.90;;;;;;5013051;28;20070;-71
2021/12/20 03:40:01;;;;;;;27.70;4.07;;;5.80;99.90;;;;;;5012968;28;20169;-72
2021/12/20 03:42:30;;;;;;;20.23;3.67;;;5.80;99.90;;;;;;5013016;28;20125;-71
2021/12/20 03:44:55;;;;;;;17.05;3.30;;;5.80;99.90;;;;;;5016739;28;20387;-70
2021/12/20 03:47:21;;;;;;;13.50;2.75;;;5.70;99.90;;;;;;5014867;28;20041;-70
2021/12/20 03:49:47;;;;;;;23.40;3.75;;;5.60;99.90;;;;;;5011558;28;20088;-70
2021/12/20 03:52:12;;;;;;;11.85;3.00;;;5.70;99.90;;;;;;5027468;28;20096;-70
2021/12/20 03:54:39;;;;;;;17.33;3.40;;;5.60;99.90;;;;;;5027894;28;20037;-71
2021/12/20 03:57:05;;;;;;;20.10;3.75;;;5.50;99.90;;;;;;5027760;28;20085;-71
2021/12/20 03:59:31;;;;;;;22.35;3.63;;;5.60;99.90;;;;;;5011230;28;20075;-71
2021/12/20 04:01:58;;;;;;;18.67;3.00;;;5.40;99.90;;;;;;5011294;28;20125;-71
2021/12/20 04:04:24;;;;;;;16.50;3.45;;;5.50;99.90;;;;;;5027664;28;20494;-71
2021/12/20 04:06:50;;;;;;;25.30;4.22;;;5.40;99.90;;;;;;5011024;28;20113;-71
2021/12/20 04:09:16;;;;;;;24.08;3.53;;;5.40;99.90;;;;;;5012310;28;20144;-70
2021/12/20 04:11:41;;;;;;;12.77;2.85;;;5.20;99.90;;;;;;5012081;28;20049;-70
2021/12/20 04:14:07;;;;;;;12.00;2.65;;;5.20;99.90;;;;;;5010750;28;20053;-71
2021/12/20 04:16:36;;;;;;;18.45;3.05;;;5.20;99.90;;;;;;5012184;28;20034;-71
2021/12/20 04:19:02;;;;;;;20.08;3.35;;;5.20;99.90;;;;;;5012163;28;20418;-71
2021/12/20 04:21:27;;;;;;;18.90;3.25;;;5.10;99.90;;;;;;5012166;28;20127;-71
2021/12/20 04:23:53;;;;;;;20.40;3.22;;;5.10;99.90;;;;;;5026897;28;20096;-71
2021/12/20 04:26:18;;;;;;;14.73;2.90;;;5.10;99.90;;;;;;5027122;28;20041;-71
2021/12/20 04:28:44;;;;;;;15.20;4.10;;;5.00;99.90;;;;;;5026889;28;20041;-71
2021/12/20 04:31:10;;;;;;;13.80;2.95;;;5.00;99.90;;;;;;5027008;28;20048;-72
2021/12/20 04:33:35;;;;;;;19.88;3.05;;;4.90;99.90;;;;;;5011802;28;20038;-71
2021/12/20 04:36:01;;;;;;;22.98;4.25;;;4.80;99.90;;;;;;5026861;28;20049;-71
2021/12/20 04:38:29;;;;;;;17.50;3.22;;;4.90;99.90;;;;;;5026958;28;20042;-71
2021/12/20 04:40:54;;;;;;;17.85;3.20;;;4.70;99.90;;;;;;5011855;28;20045;-71
2021/12/20 04:43:20;;;;;;;15.85;3.17;;;4.70;99.90;;;;;;5026492;28;20050;-71
2021/12/20 04:45:46;;;;;;;13.60;2.80;;;4.60;99.90;;;;;;5011538;28;20030;-71
2021/12/20 04:48:11;;;;;;;18.42;3.55;;;4.40;99.90;;;;;;5011730;28;20038;-71
2021/12/20 04:50:38;;;;;;;17.13;3.83;;;4.40;99.90;;;;;;5011779;28;20037;-71
2021/12/20 04:53:04;;;;;;;15.45;2.67;;;4.50;99.90;;;;;;5011417;28;20395;-70
2021/12/20 04:55:31;;;;;;;12.35;2.55;;;4.50;99.90;;;;;;5011514;28;20092;-71
2021/12/20 04:57:58;;;;;;;16.33;2.92;;;4.40;99.90;;;;;;5011343;28;20042;-71
2021/12/20 05:00:27;;;;;;;19.85;2.67;;;4.40;99.90;;;;;;5011406;28;20560;-71
2021/12/20 05:02:53;;;;;;;10.20;2.38;;;4.30;99.90;;;;;;5011112;28;20095;-71
2021/12/20 05:05:21;;;;;;;22.02;2.70;;;4.20;99.90;;;;;;5012743;28;20065;-75
2021/12/20 05:07:47;;;;;;;17.88;3.55;;;4.20;99.90;;;;;;5032223;28;20044;-70
2021/12/20 05:10:24;;;;;;;20.95;2.83;;;4.10;99.90;;;;;;5014786;28;20073;-71
2021/12/20 05:12:50;;;;;;;11.98;2.38;;;4.20;99.90;;;;;;5011132;28;20038;-71
2021/12/20 05:15:16;;;;;;;16.48;3.38;;;4.20;99.90;;;;;;5011164;28;20088;-72
2021/12/20 05:17:41;;;;;;;16.65;2.90;;;4.20;99.90;;;;;;5011595;28;20414;-71
2021/12/20 05:20:07;;;;;;;12.88;2.60;;;4.20;99.90;;;;;;5026345;28;20088;-71
2021/12/20 05:22:33;;;;;;;14.70;3.33;;;4.20;99.90;;;;;;5010839;28;20042;-71
2021/12/20 05:24:58;;;;;;;20.20;3.33;;;4.20;99.90;;;;;;5011093;28;20041;-71
2021/12/20 05:27:24;;;;;;;14.52;3.20;;;4.00;99.90;;;;;;5009993;28;20049;-71
2021/12/20 05:29:50;;;;;;;13.75;2.22;;;4.00;99.90;;;;;;5011091;28;20049;-71
2021/12/20 05:32:16;;;;;;;11.13;2.83;;;4.00;99.90;;;;;;5010926;28;20050;-71
2021/12/20 05:34:41;;;;;;;15.05;2.53;;;4.10;99.90;;;;;;5026258;28;20391;-76
2021/12/20 05:37:07;;;;;;;15.02;2.83;;;4.00;99.90;;;;;;5026452;28;20050;-76
2021/12/20 05:39:33;;;;;;;20.98;2.88;;;3.90;99.90;;;;;;5026434;28;20045;-76
2021/12/20 05:41:58;;;;;;;13.13;2.88;;;3.90;99.90;;;;;;5011112;28;20049;-76
2021/12/20 05:44:24;;;;;;;11.90;2.53;;;3.90;99.90;;;;;;5026303;28;20050;-76
2021/12/20 05:46:50;;;;;;;13.57;2.90;;;3.90;99.90;;;;;;5027645;28;20073;-73
2021/12/20 05:49:15;;;;;;;14.27;2.88;;;4.00;99.90;;;;;;5010927;28;20037;-72
2021/12/20 05:51:41;;;;;;;10.02;2.33;;;3.90;99.90;;;;;;5009766;28;20045;-72
2021/12/20 05:54:06;;;;;;;12.25;3.10;;;3.90;99.90;;;;;;5026033;28;20785;-72
2021/12/20 05:56:32;;;;;;;13.32;2.50;;;3.80;99.90;;;;;;5011117;28;20042;-72
2021/12/20 05:58:57;;;;;;;10.35;2.30;;;3.70;99.90;;;;;;5011291;28;20042;-72
2021/12/20 06:01:23;;;;;;;10.02;2.65;;;3.60;99.90;;;;;;5011236;28;20069;-72
2021/12/20 06:03:48;;;;;;;10.43;2.35;;;3.60;99.90;;;;;;5010750;28;20038;-72
2021/12/20 06:06:15;;;;;;;9.18;2.50;;;3.40;99.90;;;;;;5011004;28;20125;-72
2021/12/20 06:08:40;;;;;;;8.60;2.25;;;3.50;99.90;;;;;;5010855;28;20106;-72
2021/12/20 06:11:06;;;;;;;17.15;2.72;;;3.50;99.90;;;;;;5010934;28;20478;-72
2021/12/20 06:13:32;;;;;;;17.23;2.70;;;3.30;99.90;;;;;;5010740;28;20038;-72
2021/12/20 06:15:57;;;;;;;13.18;2.60;;;3.40;99.90;;;;;;5010661;28;20121;-72
2021/12/20 06:18:23;;;;;;;13.32;2.33;;;3.40;99.90;;;;;;5010833;28;20077;-72
2021/12/20 06:20:49;;;;;;;9.05;2.40;;;3.30;99.90;;;;;;5010718;28;20061;-72
2021/12/20 06:23:14;;;;;;;11.73;2.80;;;3.30;99.90;;;;;;5009297;28;20046;-72
2021/12/20 06:25:40;;;;;;;13.52;2.63;;;3.30;99.90;;;;;;5012242;28;20038;-72
2021/12/20 06:28:06;;;;;;;12.52;3.00;;;3.30;99.90;;;;;;5014539;28;20406;-72
2021/12/20 06:30:31;;;;;;;14.13;4.45;;;3.20;99.90;;;;;;5023593;28;20482;-72
2021/12/20 06:32:57;;;;;;;15.85;2.67;;;3.30;99.90;;;;;;5020402;28;20038;-72
2021/12/20 06:35:23;;;;;;;9.82;2.17;;;3.20;99.90;;;;;;5014277;28;20092;-73
2021/12/20 06:37:58;;;;;;;10.90;2.55;;;3.20;99.90;;;;;;5015169;28;20034;-72
2021/12/20 06:40:25;;;;;;;14.48;2.38;;;3.20;99.90;;;;;;5016907;28;20045;-72
2021/12/20 06:42:50;;;;;;;11.63;2.28;;;3.20;99.90;;;;;;5014596;28;20073;-72
2021/12/20 06:45:16;;;;;;;11.07;2.95;;;3.20;99.90;;;;;;5029564;28;20510;-72
2021/12/20 06:47:43;;;;;;;7.10;2.47;;;3.00;99.90;;;;;;5013796;28;20101;-72
2021/12/20 06:50:08;;;;;;;6.93;1.95;;;2.90;99.90;;;;;;5029000;28;20083;-72
2021/12/20 06:52:34;;;;;;;6.00;1.95;;;3.00;99.90;;;;;;5028825;28;20140;-72
2021/12/20 06:55:00;;;;;;;13.43;2.40;;;2.90;99.90;;;;;;5029208;28;20066;-72
2021/12/20 06:57:25;;;;;;;12.35;2.38;;;2.90;99.90;;;;;;5012391;28;20052;-72
2021/12/20 06:59:51;;;;;;;6.88;2.00;;;2.90;99.90;;;;;;5013747;28;20046;-72
2021/12/20 07:02:17;;;;;;;9.02;2.30;;;2.80;99.90;;;;;;5013244;28;20474;-72
2021/12/20 07:04:43;;;;;;;8.02;1.83;;;2.80;99.90;;;;;;5013815;28;20509;-72
2021/12/20 07:07:09;;;;;;;10.32;2.33;;;2.80;99.90;;;;;;5013719;28;20038;-72
2021/12/20 07:09:34;;;;;;;12.35;3.00;;;2.80;99.90;;;;;;5013512;28;20465;-72
2021/12/20 07:12:02;;;;;;;12.73;2.53;;;2.70;99.90;;;;;;5012683;28;20042;-72
2021/12/20 07:14:27;;;;;;;10.77;2.58;;;2.70;99.90;;;;;;5012175;28;20081;-72
2021/12/20 07:16:56;;;;;;;7.53;2.38;;;2.70;99.90;;;;;;5028526;28;20509;-72
2021/12/20 07:19:23;;;;;;;13.00;3.35;;;2.80;99.90;;;;;;5028585;28;20050;-72
2021/12/20 07:21:48;;;;;;;13.85;2.70;;;2.80;99.90;;;;;;5011628;28;20061;-72
2021/12/20 07:24:14;;;;;;;13.02;2.55;;;2.70;99.90;;;;;;5012080;28;20410;-72
2021/12/20 07:26:43;;;;;;;11.05;2.42;;;2.60;99.90;;;;;;5011798;28;20046;-72
2021/12/20 07:29:09;;;;;;;9.10;2.45;;;2.60;99.90;;;;;;5009899;28;20077;-72
2021/12/20 07:31:35;;;;;;;11.52;2.65;;;2.70;99.90;;;;;;5025634;28;20078;-72
2021/12/20 07:34:00;;;;;;;8.07;2.35;;;2.70;99.90;;;;;;5010978;28;20053;-72
2021/12/20 07:36:26;;;;;;;9.52;2.30;;;2.60;99.90;;;;;;5027584;28;20041;-72
2021/12/20 07:38:52;;;;;;;14.25;2.72;;;2.50;99.90;;;;;;5010877;28;20049;-72
2021/12/20 07:41:19;;;;;;;8.63;2.72;;;2.50;99.90;;;;;;5010546;28;20048;-72
2021/12/20 07:43:46;;;;;;;11.02;2.85;;;2.50;99.90;;;;;;5012730;28;20049;-72
2021/12/20 07:46:12;;;;;;;12.77;2.65;;;2.50;99.90;;;;;;5012947;28;20139;-72
2021/12/20 07:48:37;;;;;;;11.02;2.55;;;2.50;99.90;;;;;;5027841;28;20494;-72
2021/12/20 07:51:04;;;;;;;14.88;3.88;;;2.40;99.90;;;;;;5016304;28;20038;-72
2021/12/20 07:53:30;;;;;;;10.27;2.47;;;2.50;99.90;;;;;;5032884;28;20418;-73
2021/12/20 07:55:56;;;;;;;10.13;2.35;;;2.50;99.90;;;;;;5028030;28;20038;-72
2021/12/20 07:58:22;;;;;;;15.70;2.78;;;2.50;99.90;;;;;;5028150;28;20049;-72
2021/12/20 08:00:48;;;;;;;9.45;2.63;;;2.40;99.90;;;;;;5011310;28;20050;-72
2021/12/20 08:03:13;;;;;;;9.00;3.03;;;2.40;99.90;;;;;;5027156;28;20045;-72
2021/12/20 08:05:39;;;;;;;13.90;2.42;;;2.40;99.90;;;;;;4994952;28;20038;-72
2021/12/20 08:08:05;;;;;;;8.82;2.97;;;2.40;99.90;;;;;;5011618;28;20475;-72
2021/12/20 08:10:31;;;;;;;3.17;1.50;;;2.40;99.90;;;;;;5017294;28;20188;-72
2021/12/20 08:12:57;;;;;;;2.47;1.10;;;2.30;99.90;;;;;;5018603;28;20046;-72
2021/12/20 08:15:22;;;;;;;2.78;1.25;;;2.30;99.90;;;;;;5013072;28;20568;-72
2021/12/20 08:17:52;;;;;;;3.13;1.20;;;2.30;99.90;;;;;;5027392;28;20402;-73
2021/12/20 08:20:18;;;;;;;2.63;1.15;;;2.30;99.90;;;;;;5027771;28;20407;-72
2021/12/20 08:22:43;;;;;;;3.00;1.48;;;2.30;99.90;;;;;;5011950;28;20048;-72
2021/12/20 08:25:10;;;;;;;8.48;1.20;;;2.20;99.90;;;;;;5010891;28;20034;-72
2021/12/20 08:27:39;;;;;;;7.20;1.40;;;2.20;99.90;;;;;;5010825;28;20560;-72
2021/12/20 08:30:05;;;;;;;2.33;1.65;;;2.20;99.90;;;;;;5012128;28;20414;-72
2021/12/20 08:32:31;;;;;;;9.57;1.67;;;2.20;99.90;;;;;;5026941;28;20074;-72
2021/12/20 08:34:57;;;;;;;4.13;1.65;;;2.20;99.90;;;;;;5012326;28;20045;-72
2021/12/20 08:37:22;;;;;;;3.35;1.55;;;2.30;99.90;;;;;;5027128;28;20053;-73
2021/12/20 08:39:48;;;;;;;5.15;1.52;;;2.30;99.90;;;;;;5027197;28;20050;-73
2021/12/20 08:42:14;;;;;;;7.18;1.50;;;2.30;99.90;;;;;;5026741;28;20085;-72
2021/12/20 08:44:39;;;;;;;4.43;1.85;;;2.40;99.90;;;;;;5026988;28;20517;-72
2021/12/20 08:47:05;;;;;;;1.88;1.40;;;2.30;99.90;;;;;;5011689;28;20111;-73
2021/12/20 08:49:31;;;;;;;10.23;1.67;;;2.30;99.90;;;;;;5010027;28;20072;-72
2021/12/20 08:51:57;;;;;;;5.93;1.52;;;2.40;99.90;;;;;;5026884;28;20046;-73
2021/12/20 08:54:28;;;;;;;6.18;1.70;;;2.30;99.90;;;;;;5011715;28;20042;-72
2021/12/20 08:56:55;;;;;;;8.55;1.98;;;2.30;99.90;;;;;;5010612;28;20498;-73
2021/12/20 08:59:20;;;;;;;7.80;2.10;;;2.40;99.90;;;;;;5011482;28;20052;-72
2021/12/20 09:01:46;;;;;;;3.25;1.50;;;2.50;99.90;;;;;;5026300;28;20132;-73
2021/12/20 09:04:12;;;;;;;5.53;1.60;;;2.50;99.90;;;;;;5011662;28;20049;-72
2021/12/20 09:06:40;;;;;;;9.10;1.70;;;2.60;99.90;;;;;;5028078;28;20049;-72
2021/12/20 09:09:11;;;;;;;7.70;3.25;;;2.60;99.90;;;;;;5014799;28;20048;-72
2021/12/20 09:11:37;;;;;;;5.78;2.03;;;2.70;99.90;;;;;;5011908;28;20042;-72
2021/12/20 09:14:03;;;;;;;7.28;1.88;;;2.70;99.90;;;;;;5009954;28;20510;-72
2021/12/20 09:16:29;;;;;;;8.48;1.98;;;2.70;99.90;;;;;;5010180;28;20129;-72
2021/12/20 09:18:55;;;;;;;10.30;2.00;;;2.80;99.90;;;;;;5011313;28;20498;-73
2021/12/20 09:21:21;;;;;;;9.63;2.35;;;2.80;99.90;;;;;;5010256;28;20049;-72
2021/12/20 09:23:47;;;;;;;6.25;1.63;;;2.70;99.90;;;;;;5009880;28;20034;-73
2021/12/20 09:26:14;;;;;;;8.43;1.88;;;2.80;99.90;;;;;;5011591;28;20453;-72
2021/12/20 09:28:40;;;;;;;6.25;1.67;;;2.80;99.90;;;;;;5026293;28;20026;-72
2021/12/20 09:31:08;;;;;;;6.90;1.83;;;2.80;99.90;;;;;;5009963;28;20045;-72
2021/12/20 09:33:34;;;;;;;4.70;1.95;;;2.90;99.90;;;;;;5009567;28;20124;-72
2021/12/20 09:36:01;;;;;;;6.22;1.67;;;2.90;99.90;;;;;;5016530;28;20080;-73
2021/12/20 09:38:28;;;;;;;4.78;1.83;;;2.80;99.90;;;;;;5017739;28;20169;-72
2021/12/20 09:41:13;;;;;;;6.13;1.88;;;3.00;99.90;;;;;;5015624;28;20050;-73
2021/12/20 09:43:52;;;;;;;8.07;1.65;;;3.10;99.90;;;;;;5014862;28;20038;-72
2021/12/20 09:46:21;;;;;;;2.72;1.60;;;3.10;99.90;;;;;;5027399;28;20044;-73
2021/12/20 09:48:49;;;;;;;8.18;1.83;;;3.10;99.90;;;;;;5009990;28;20053;-72
2021/12/20 09:51:16;;;;;;;18.33;4.03;;;3.20;99.90;;;;;;5026612;28;20502;-72
2021/12/20 09:53:42;;;;;;;10.48;2.10;;;3.20;99.90;;;;;;5010805;28;20121;-72
2021/12/20 09:56:08;;;;;;;11.40;2.47;;;3.30;99.90;;;;;;5011172;28;20137;-72
2021/12/20 09:58:37;;;;;;;7.30;2.22;;;3.30;99.90;;;;;;5010835;28;20597;-72
2021/12/20 10:01:05;;;;;;;11.07;2.00;;;3.30;99.90;;;;;;5012784;28;20038;-73
2021/12/20 10:03:31;;;;;;;6.53;2.10;;;3.40;99.90;;;;;;5013343;28;20045;-72
2021/12/20 10:05:57;;;;;;;16.42;1.83;;;3.40;99.90;;;;;;5029955;28;20030;-72
2021/12/20 10:08:34;;;;;;;11.23;3.22;;;3.60;99.90;;;;;;5013439;28;20399;-72
2021/12/20 10:11:21;;;;;;;13.05;3.00;;;3.60;99.90;;;;;;5014822;28;20044;-72
2021/12/20 10:13:47;;;;;;;14.20;3.47;;;3.70;99.90;;;;;;5014418;28;20046;-72
2021/12/20 10:16:22;;;;;;;10.07;3.20;;;3.70;99.90;;;;;;5014625;28;20081;-72
2021/12/20 10:18:48;;;;;;;21.60;4.65;;;3.90;99.90;;;;;;5013397;28;20156;-72
2021/12/20 10:21:15;;;;;;;20.75;4.28;;;3.90;99.90;;;;;;5014533;28;20050;-72
2021/12/20 10:23:47;;;;;;;14.05;3.50;;;4.00;99.90;;;;;;5033366;28;20045;-72
2021/12/20 10:26:19;;;;;;;14.57;3.53;;;4.10;99.90;;;;;;5015804;28;20037;-72
2021/12/20 10:28:46;;;;;;;;;;;4.10;99.90;;;;;;5014486;28;20069;-72
2021/12/20 10:31:14;;;;;;;27.92;4.78;;;4.00;99.90;;;;;;5029562;28;19922;-72
2021/12/20 10:33:40;;;;;;;25.23;6.18;;;4.20;99.90;;;;;;5014237;28;20095;-72
2021/12/20 10:36:12;;;;;;;25.75;4.82;;;4.30;99.90;;;;;;5014256;28;20046;-72
2021/12/20 10:38:42;;;;;;;24.58;4.57;;;4.40;99.90;;;;;;5029785;28;20103;-72
2021/12/20 10:41:22;;;;;;;26.77;4.50;;;4.40;99.90;;;;;;5029668;28;20041;-72
2021/12/20 10:43:53;;;;;;;26.13;4.88;;;4.40;99.90;;;;;;5014007;28;20461;-72
2021/12/20 10:46:21;;;;;;;20.23;4.18;;;4.50;99.90;;;;;;5012913;28;20045;-72
2021/12/20 10:48:57;;;;;;;23.85;4.65;;;4.50;99.90;;;;;;5029645;28;20414;-73
2021/12/20 10:51:39;;;;;;;20.48;4.60;;;4.50;99.90;;;;;;5015995;28;20033;-72
2021/12/20 10:54:10;;;;;;;19.65;4.45;;;4.50;99.90;;;;;;5016151;28;20061;-73
2021/12/20 10:56:38;;;;;;;18.05;4.50;;;4.60;99.90;;;;;;5016793;28;20070;-72
2021/12/20 10:59:13;;;;;;;24.20;4.50;;;4.70;99.90;;;;;;5014137;28;20046;-72
2021/12/20 11:04:31;;;;;;;17.02;4.75;;;4.70;99.90;;;;;;5029404;28;20125;-73
2021/12/20 11:09:30;;;;;;;24.63;4.20;;;4.80;99.90;;;;;;5013709;28;20076;-73
2021/12/20 11:11:59;;;;;;;23.77;4.43;;;4.80;99.90;;;;;;5013123;28;20052;-72
2021/12/20 11:14:31;;;;;;;18.55;3.70;;;4.90;99.90;;;;;;5013529;28;20482;-72
2021/12/20 11:16:59;;;;;;;16.67;3.20;;;4.90;99.90;;;;;;5028669;28;20060;-72
2021/12/20 11:19:33;;;;;;;18.40;3.70;;;5.00;99.90;;;;;;5013194;28;20137;-72
2021/12/20 11:22:08;;;;;;;20.33;3.72;;;5.00;99.90;;;;;;5013197;28;20117;-72
2021/12/20 11:24:40;;;;;;;18.00;5.32;;;5.10;99.90;;;;;;5028606;28;20034;-73
2021/12/20 11:27:12;;;;;;;23.88;4.38;;;5.00;99.90;;;;;;5013151;28;20037;-72
2021/12/20 11:29:39;;;;;;;21.00;4.13;;;5.00;99.90;;;;;;5013158;28;20048;-72
2021/12/20 11:32:06;;;;;;;19.27;4.15;;;5.10;99.90;;;;;;5013131;28;20103;-73
2021/12/20 11:34:33;;;;;;;15.45;3.45;;;5.10;99.90;;;;;;5012125;28;20061;-73
2021/12/20 11:37:00;;;;;;;23.58;4.05;;;5.20;99.90;;;;;;5013634;28;20077;-74
2021/12/20 11:39:26;;;;;;;17.73;3.35;;;5.40;99.90;;;;;;5036620;28;20041;-73
2021/12/20 11:41:52;;;;;;;16.65;3.33;;;5.70;99.90;;;;;;5017282;28;20041;-73
2021/12/20 11:44:21;;;;;;;18.92;4.43;;;5.60;99.90;;;;;;5028117;28;20171;-72
2021/12/20 11:46:54;;;;;;;21.17;3.47;;;5.70;99.90;;;;;;5028369;28;20074;-74
2021/12/20 11:49:22;;;;;;;13.05;3.80;;;5.80;99.90;;;;;;5028096;28;20038;-73
2021/12/20 11:51:54;;;;;;;18.35;3.38;;;6.30;99.90;;;;;;5027937;28;20426;-73
2021/12/20 11:54:40;;;;;;;12.82;2.95;;;6.20;99.90;;;;;;5032523;28;20506;-74
2021/12/20 11:57:29;;;;;;;11.32;2.60;;;6.10;99.90;;;;;;5023446;28;20034;-74
2021/12/20 11:59:59;;;;;;;12.57;3.40;;;6.10;99.90;;;;;;5022945;28;20401;-74
2021/12/20 12:02:29;;;;;;;10.50;2.33;;;6.10;99.90;;;;;;5031039;28;20042;-74
2021/12/20 12:05:07;;;;;;;11.35;2.60;;;6.00;99.90;;;;;;5032375;28;20038;-72
2021/12/20 12:07:35;;;;;;;9.00;2.63;;;5.90;99.90;;;;;;5032394;28;20441;-71
2021/12/20 12:10:14;;;;;;;14.23;2.65;;;5.90;99.90;;;;;;5030986;28;20048;-71
2021/12/20 12:12:45;;;;;;;10.95;3.08;;;5.90;99.90;;;;;;5014210;28;20048;-71
2021/12/20 12:15:20;;;;;;;5.82;2.35;;;6.00;99.90;;;;;;5028448;28;20398;-72
2021/12/20 12:18:03;;;;;;;11.77;2.45;;;6.10;99.90;;;;;;5025294;28;20053;-72
2021/12/20 12:20:44;;;;;;;12.75;3.38;;;6.10;99.90;;;;;;5024219;28;20620;-72
2021/12/20 12:23:15;;;;;;;13.20;2.25;;;6.10;99.90;;;;;;5038485;28;20045;-72
2021/12/20 12:25:54;;;;;;;10.75;3.25;;;6.20;99.90;;;;;;5033853;28;20042;-71
2021/12/20 12:28:24;;;;;;;14.70;2.70;;;6.20;99.90;;;;;;5018118;28;20052;-71
2021/12/20 12:31:02;;;;;;;8.40;2.72;;;6.10;99.90;;;;;;5011279;28;20348;-73
2021/12/20 12:33:38;;;;;;;12.88;2.55;;;6.10;99.90;;;;;;5010762;28;20498;-72
2021/12/20 12:36:09;;;;;;;8.30;2.75;;;6.50;99.90;;;;;;5010838;28;20045;-71
2021/12/20 12:38:49;;;;;;;8.98;2.58;;;6.30;99.90;;;;;;5010703;28;20037;-71
2021/12/20 12:41:31;;;;;;;7.03;2.30;;;6.20;99.90;;;;;;5010727;28;20046;-71
2021/12/20 12:43:58;;;;;;;7.33;2.27;;;6.30;99.90;;;;;;5026965;28;20038;-72
2021/12/20 12:46:59;;;;;;;12.57;2.67;;;6.20;99.90;;;;;;5010886;28;20034;-71
2021/12/20 12:49:26;;;;;;;12.45;2.63;;;6.20;99.90;;;;;;5004928;28;20045;-71
2021/12/20 12:52:01;;;;;;;10.85;2.42;;;6.30;99.90;;;;;;5010826;28;20054;-71
2021/12/20 12:54:33;;;;;;;9.38;3.72;;;6.20;99.90;;;;;;5015441;28;20042;-72
2021/12/20 12:57:11;;;;;;;9.50;2.25;;;6.30;99.90;;;;;;5018744;28;20045;-71
2021/12/20 12:59:50;;;;;;;8.23;2.55;;;6.30;99.90;;;;;;5011963;28;20100;-73
2021/12/20 13:02:20;;;;;;;7.05;2.10;;;6.40;99.90;;;;;;5010068;28;20048;-73
2021/12/20 13:04:46;;;;;;;7.90;3.42;;;6.20;99.90;;;;;;5027230;28;20069;-71
2021/12/20 13:07:17;;;;;;;6.82;2.35;;;6.20;99.90;;;;;;5019183;28;20132;-71
2021/12/20 13:09:45;;;;;;;9.98;2.40;;;6.20;99.90;;;;;;5025510;28;20029;-71
2021/12/20 13:12:43;;;;;;;6.50;2.03;;;6.30;99.90;;;;;;5030112;28;20069;-71
2021/12/20 13:15:18;;;;;;;6.85;1.90;;;6.30;99.90;;;;;;5006316;28;20151;-71
2021/12/20 13:17:48;;;;;;;6.00;2.30;;;6.20;99.90;;;;;;5018613;28;20509;-71